sensor_id;sensor_type;location;lat;lon;timestamp;P1;durP1;ratioP1;P2;durP2;ratioP2
76113;SDS011;64845;53.086;5.834;2023-05-19T00:01:05;13.90;;;4.68;;
76113;SDS011;64845;53.086;5.834;2023-05-19T00:03:31;12.32;;;4.05;;
76113;SDS011;64845;53.086;5.834;2023-05-19T00:05:57;14.05;;;4.38;;
76113;SDS011;64845;53.086;5.834;2023-05-19T00:08:26;11.07;;;4.25;;
76113;SDS011;64845;53.086;5.834;2023-05-19T00:10:56;8.57;;;3.92;;
76113;SDS011;64845;53.086;5.834;2023-05-19T00:13:22;17.77;;;4.80;;
76113;SDS011;64845;53.086;5.834;2023-05-19T00:15:48;9.70;;;3.90;;
76113;SDS011;64845;53.086;5.834;2023-05-19T00:18:13;13.93;;;4.53;;
76113;SDS011;64845;53.086;5.834;2023-05-19T00:20:40;16.05;;;4.57;;
76113;SDS011;64845;53.086;5.834;2023-05-19T00:23:06;12.77;;;4.50;;
76113;SDS011;64845;53.086;5.834;2023-05-19T00:25:32;9.68;;;3.90;;
76113;SDS011;64845;53.086;5.834;2023-05-19T00:27:57;13.73;;;4.45;;
76113;SDS011;64845;53.086;5.834;2023-05-19T00:30:23;13.65;;;4.55;;
76113;SDS011;64845;53.086;5.834;2023-05-19T00:32:48;13.85;;;4.32;;
76113;SDS011;64845;53.086;5.834;2023-05-19T00:35:14;12.00;;;4.38;;
76113;SDS011;64845;53.086;5.834;2023-05-19T00:37:40;17.80;;;4.50;;
76113;SDS011;64845;53.086;5.834;2023-05-19T00:40:06;10.32;;;4.35;;
76113;SDS011;64845;53.086;5.834;2023-05-19T00:42:32;13.93;;;4.53;;
76113;SDS011;64845;53.086;5.834;2023-05-19T00:44:57;13.43;;;4.78;;
76113;SDS011;64845;53.086;5.834;2023-05-19T00:47:23;13.30;;;5.47;;
76113;SDS011;64845;53.086;5.834;2023-05-19T00:49:48;11.30;;;3.80;;
76113;SDS011;64845;53.086;5.834;2023-05-19T00:52:13;12.18;;;4.72;;
76113;SDS011;64845;53.086;5.834;2023-05-19T00:54:39;11.70;;;4.00;;
76113;SDS011;64845;53.086;5.834;2023-05-19T00:57:04;8.95;;;4.55;;
76113;SDS011;64845;53.086;5.834;2023-05-19T00:59:30;15.35;;;4.70;;
76113;SDS011;64845;53.086;5.834;2023-05-19T01:01:56;11.20;;;4.90;;
76113;SDS011;64845;53.086;5.834;2023-05-19T01:04:21;17.55;;;4.60;;
76113;SDS011;64845;53.086;5.834;2023-05-19T01:06:49;16.58;;;4.45;;
76113;SDS011;64845;53.086;5.834;2023-05-19T01:09:21;14.63;;;5.05;;
76113;SDS011;64845;53.086;5.834;2023-05-19T01:11:47;12.50;;;4.53;;
76113;SDS011;64845;53.086;5.834;2023-05-19T01:14:15;13.48;;;4.40;;
76113;SDS011;64845;53.086;5.834;2023-05-19T01:17:00;11.55;;;5.88;;
76113;SDS011;64845;53.086;5.834;2023-05-19T01:28:23;19.17;;;5.50;;
76113;SDS011;64845;53.086;5.834;2023-05-19T01:30:55;16.60;;;4.97;;
76113;SDS011;64845;53.086;5.834;2023-05-19T01:33:24;10.75;;;4.70;;
76113;SDS011;64845;53.086;5.834;2023-05-19T01:35:52;16.73;;;4.53;;
76113;SDS011;64845;53.086;5.834;2023-05-19T01:38:19;22.27;;;5.10;;
76113;SDS011;64845;53.086;5.834;2023-05-19T01:40:46;13.68;;;4.60;;
76113;SDS011;64845;53.086;5.834;2023-05-19T01:43:20;11.63;;;4.15;;
76113;SDS011;64845;53.086;5.834;2023-05-19T01:45:48;13.80;;;4.53;;
76113;SDS011;64845;53.086;5.834;2023-05-19T01:48:14;13.52;;;4.38;;
76113;SDS011;64845;53.086;5.834;2023-05-19T01:50:41;13.38;;;4.85;;
76113;SDS011;64845;53.086;5.834;2023-05-19T01:53:07;10.65;;;3.95;;
76113;SDS011;64845;53.086;5.834;2023-05-19T01:55:33;13.30;;;4.15;;
76113;SDS011;64845;53.086;5.834;2023-05-19T01:58:14;11.80;;;4.25;;
76113;SDS011;64845;53.086;5.834;2023-05-19T02:00:59;13.00;;;3.83;;
76113;SDS011;64845;53.086;5.834;2023-05-19T02:09:11;14.00;;;4.68;;
76113;SDS011;64845;53.086;5.834;2023-05-19T02:11:39;17.15;;;4.78;;
76113;SDS011;64845;53.086;5.834;2023-05-19T02:14:18;14.95;;;3.88;;
76113;SDS011;64845;53.086;5.834;2023-05-19T02:16:48;12.77;;;4.10;;
76113;SDS011;64845;53.086;5.834;2023-05-19T02:19:21;10.85;;;3.67;;
76113;SDS011;64845;53.086;5.834;2023-05-19T02:21:50;13.68;;;3.75;;
76113;SDS011;64845;53.086;5.834;2023-05-19T02:24:16;12.52;;;4.00;;
76113;SDS011;64845;53.086;5.834;2023-05-19T02:26:42;13.50;;;4.00;;
76113;SDS011;64845;53.086;5.834;2023-05-19T02:29:07;14.82;;;3.95;;
76113;SDS011;64845;53.086;5.834;2023-05-19T02:31:33;14.85;;;4.13;;
76113;SDS011;64845;53.086;5.834;2023-05-19T02:33:58;9.05;;;3.25;;
76113;SDS011;64845;53.086;5.834;2023-05-19T02:36:24;13.10;;;3.83;;
76113;SDS011;64845;53.086;5.834;2023-05-19T02:38:50;13.05;;;3.95;;
76113;SDS011;64845;53.086;5.834;2023-05-19T02:41:16;15.20;;;3.90;;
76113;SDS011;64845;53.086;5.834;2023-05-19T02:43:41;11.38;;;3.22;;
76113;SDS011;64845;53.086;5.834;2023-05-19T02:46:06;16.88;;;3.55;;
76113;SDS011;64845;53.086;5.834;2023-05-19T02:48:32;12.85;;;3.50;;
76113;SDS011;64845;53.086;5.834;2023-05-19T02:50:57;12.40;;;3.03;;
76113;SDS011;64845;53.086;5.834;2023-05-19T02:53:22;12.02;;;3.42;;
76113;SDS011;64845;53.086;5.834;2023-05-19T02:55:48;14.10;;;3.30;;
76113;SDS011;64845;53.086;5.834;2023-05-19T02:58:13;12.30;;;3.22;;
76113;SDS011;64845;53.086;5.834;2023-05-19T03:00:39;15.98;;;3.45;;
76113;SDS011;64845;53.086;5.834;2023-05-19T03:03:04;16.33;;;3.20;;
76113;SDS011;64845;53.086;5.834;2023-05-19T03:05:29;16.10;;;3.20;;
76113;SDS011;64845;53.086;5.834;2023-05-19T03:07:55;13.55;;;2.60;;
76113;SDS011;64845;53.086;5.834;2023-05-19T03:10:20;11.55;;;3.03;;
76113;SDS011;64845;53.086;5.834;2023-05-19T03:12:45;14.32;;;3.15;;
76113;SDS011;64845;53.086;5.834;2023-05-19T03:15:11;18.05;;;3.47;;
76113;SDS011;64845;53.086;5.834;2023-05-19T03:17:38;16.77;;;3.47;;
76113;SDS011;64845;53.086;5.834;2023-05-19T03:20:05;14.57;;;3.17;;
76113;SDS011;64845;53.086;5.834;2023-05-19T03:22:31;17.13;;;3.35;;
76113;SDS011;64845;53.086;5.834;2023-05-19T03:24:57;11.63;;;3.08;;
76113;SDS011;64845;53.086;5.834;2023-05-19T03:27:22;13.25;;;3.45;;
76113;SDS011;64845;53.086;5.834;2023-05-19T03:29:48;15.23;;;3.33;;
76113;SDS011;64845;53.086;5.834;2023-05-19T03:32:14;9.57;;;3.25;;
76113;SDS011;64845;53.086;5.834;2023-05-19T03:34:39;10.95;;;3.40;;
76113;SDS011;64845;53.086;5.834;2023-05-19T03:37:05;15.80;;;3.35;;
76113;SDS011;64845;53.086;5.834;2023-05-19T03:39:30;9.90;;;3.13;;
76113;SDS011;64845;53.086;5.834;2023-05-19T03:41:55;12.00;;;3.55;;
76113;SDS011;64845;53.086;5.834;2023-05-19T03:44:21;11.13;;;3.67;;
76113;SDS011;64845;53.086;5.834;2023-05-19T03:46:46;15.10;;;3.33;;
76113;SDS011;64845;53.086;5.834;2023-05-19T03:49:12;9.07;;;3.60;;
76113;SDS011;64845;53.086;5.834;2023-05-19T03:51:38;11.70;;;3.42;;
76113;SDS011;64845;53.086;5.834;2023-05-19T03:54:05;20.08;;;4.78;;
76113;SDS011;64845;53.086;5.834;2023-05-19T03:56:30;14.05;;;4.38;;
76113;SDS011;64845;53.086;5.834;2023-05-19T03:58:56;12.43;;;3.72;;
76113;SDS011;64845;53.086;5.834;2023-05-19T04:01:22;12.30;;;3.60;;
76113;SDS011;64845;53.086;5.834;2023-05-19T04:03:47;15.65;;;3.95;;
76113;SDS011;64845;53.086;5.834;2023-05-19T04:06:12;15.68;;;3.70;;
76113;SDS011;64845;53.086;5.834;2023-05-19T04:08:38;11.25;;;3.58;;
76113;SDS011;64845;53.086;5.834;2023-05-19T04:11:04;14.18;;;4.05;;
76113;SDS011;64845;53.086;5.834;2023-05-19T04:13:31;14.52;;;3.95;;
76113;SDS011;64845;53.086;5.834;2023-05-19T04:15:57;15.50;;;3.90;;
76113;SDS011;64845;53.086;5.834;2023-05-19T04:18:23;12.27;;;3.97;;
76113;SDS011;64845;53.086;5.834;2023-05-19T04:20:48;15.25;;;4.05;;
76113;SDS011;64845;53.086;5.834;2023-05-19T04:23:13;16.00;;;4.10;;
76113;SDS011;64845;53.086;5.834;2023-05-19T04:25:39;19.17;;;4.82;;
76113;SDS011;64845;53.086;5.834;2023-05-19T04:28:05;17.05;;;4.68;;
76113;SDS011;64845;53.086;5.834;2023-05-19T04:30:31;13.95;;;4.10;;
76113;SDS011;64845;53.086;5.834;2023-05-19T04:32:58;13.05;;;3.90;;
76113;SDS011;64845;53.086;5.834;2023-05-19T04:35:25;14.07;;;3.90;;
76113;SDS011;64845;53.086;5.834;2023-05-19T04:37:50;11.50;;;3.97;;
76113;SDS011;64845;53.086;5.834;2023-05-19T04:40:18;23.92;;;4.45;;
76113;SDS011;64845;53.086;5.834;2023-05-19T04:42:45;16.15;;;4.13;;
76113;SDS011;64845;53.086;5.834;2023-05-19T04:45:10;14.10;;;4.25;;
76113;SDS011;64845;53.086;5.834;2023-05-19T04:47:38;14.18;;;3.92;;
76113;SDS011;64845;53.086;5.834;2023-05-19T04:50:04;15.70;;;4.22;;
76113;SDS011;64845;53.086;5.834;2023-05-19T04:52:31;14.20;;;4.03;;
76113;SDS011;64845;53.086;5.834;2023-05-19T04:54:57;15.32;;;4.57;;
76113;SDS011;64845;53.086;5.834;2023-05-19T04:57:22;19.45;;;4.40;;
76113;SDS011;64845;53.086;5.834;2023-05-19T04:59:47;16.60;;;3.97;;
76113;SDS011;64845;53.086;5.834;2023-05-19T05:02:13;16.02;;;4.53;;
76113;SDS011;64845;53.086;5.834;2023-05-19T05:04:39;18.33;;;4.70;;
76113;SDS011;64845;53.086;5.834;2023-05-19T05:07:07;11.63;;;4.40;;
76113;SDS011;64845;53.086;5.834;2023-05-19T05:09:33;12.75;;;3.75;;
76113;SDS011;64845;53.086;5.834;2023-05-19T05:11:59;15.02;;;4.28;;
76113;SDS011;64845;53.086;5.834;2023-05-19T05:14:26;20.95;;;4.43;;
76113;SDS011;64845;53.086;5.834;2023-05-19T05:16:51;13.88;;;4.28;;
76113;SDS011;64845;53.086;5.834;2023-05-19T05:19:20;12.60;;;4.10;;
76113;SDS011;64845;53.086;5.834;2023-05-19T05:21:46;17.75;;;4.72;;
76113;SDS011;64845;53.086;5.834;2023-05-19T05:24:12;13.80;;;4.00;;
76113;SDS011;64845;53.086;5.834;2023-05-19T05:26:38;13.23;;;4.30;;
76113;SDS011;64845;53.086;5.834;2023-05-19T05:29:04;16.02;;;4.82;;
76113;SDS011;64845;53.086;5.834;2023-05-19T05:31:30;9.93;;;3.65;;
76113;SDS011;64845;53.086;5.834;2023-05-19T05:33:56;16.45;;;4.57;;
76113;SDS011;64845;53.086;5.834;2023-05-19T05:36:21;12.25;;;3.88;;
76113;SDS011;64845;53.086;5.834;2023-05-19T05:38:46;16.88;;;4.10;;
76113;SDS011;64845;53.086;5.834;2023-05-19T05:41:12;12.65;;;4.97;;
76113;SDS011;64845;53.086;5.834;2023-05-19T05:43:37;18.63;;;4.35;;
76113;SDS011;64845;53.086;5.834;2023-05-19T05:46:03;17.80;;;4.45;;
76113;SDS011;64845;53.086;5.834;2023-05-19T05:48:28;16.10;;;4.82;;
76113;SDS011;64845;53.086;5.834;2023-05-19T05:50:55;13.30;;;4.20;;
76113;SDS011;64845;53.086;5.834;2023-05-19T05:53:20;14.20;;;4.13;;
76113;SDS011;64845;53.086;5.834;2023-05-19T05:55:49;18.63;;;5.03;;
76113;SDS011;64845;53.086;5.834;2023-05-19T05:58:15;11.20;;;3.75;;
76113;SDS011;64845;53.086;5.834;2023-05-19T06:00:41;16.20;;;4.60;;
76113;SDS011;64845;53.086;5.834;2023-05-19T06:03:07;11.85;;;4.20;;
76113;SDS011;64845;53.086;5.834;2023-05-19T06:05:33;15.52;;;4.55;;
76113;SDS011;64845;53.086;5.834;2023-05-19T06:07:59;15.95;;;3.97;;
76113;SDS011;64845;53.086;5.834;2023-05-19T06:10:25;15.65;;;4.47;;
76113;SDS011;64845;53.086;5.834;2023-05-19T06:12:51;18.70;;;4.47;;
76113;SDS011;64845;53.086;5.834;2023-05-19T06:15:17;15.43;;;4.30;;
76113;SDS011;64845;53.086;5.834;2023-05-19T06:17:42;10.45;;;3.60;;
76113;SDS011;64845;53.086;5.834;2023-05-19T06:20:08;11.32;;;4.32;;
76113;SDS011;64845;53.086;5.834;2023-05-19T06:22:34;19.42;;;5.00;;
76113;SDS011;64845;53.086;5.834;2023-05-19T06:25:00;12.93;;;4.78;;
76113;SDS011;64845;53.086;5.834;2023-05-19T06:27:25;14.38;;;4.90;;
76113;SDS011;64845;53.086;5.834;2023-05-19T06:29:50;17.95;;;4.22;;
76113;SDS011;64845;53.086;5.834;2023-05-19T06:32:16;10.73;;;4.05;;
76113;SDS011;64845;53.086;5.834;2023-05-19T06:34:42;19.80;;;3.83;;
76113;SDS011;64845;53.086;5.834;2023-05-19T06:37:07;10.75;;;3.35;;
76113;SDS011;64845;53.086;5.834;2023-05-19T06:39:33;12.10;;;3.97;;
76113;SDS011;64845;53.086;5.834;2023-05-19T06:41:58;13.93;;;4.30;;
76113;SDS011;64845;53.086;5.834;2023-05-19T06:44:23;13.32;;;4.15;;
76113;SDS011;64845;53.086;5.834;2023-05-19T06:46:49;12.63;;;3.92;;
76113;SDS011;64845;53.086;5.834;2023-05-19T06:49:14;13.77;;;4.18;;
76113;SDS011;64845;53.086;5.834;2023-05-19T06:51:40;13.93;;;3.28;;
76113;SDS011;64845;53.086;5.834;2023-05-19T06:54:05;12.77;;;3.38;;
76113;SDS011;64845;53.086;5.834;2023-05-19T06:56:30;10.63;;;3.42;;
76113;SDS011;64845;53.086;5.834;2023-05-19T06:58:56;13.15;;;3.67;;
76113;SDS011;64845;53.086;5.834;2023-05-19T07:01:22;8.82;;;3.25;;
76113;SDS011;64845;53.086;5.834;2023-05-19T07:03:47;11.73;;;3.60;;
76113;SDS011;64845;53.086;5.834;2023-05-19T07:06:12;16.10;;;4.05;;
76113;SDS011;64845;53.086;5.834;2023-05-19T07:08:38;13.25;;;3.17;;
76113;SDS011;64845;53.086;5.834;2023-05-19T07:11:03;9.68;;;3.05;;
76113;SDS011;64845;53.086;5.834;2023-05-19T07:13:29;12.57;;;3.00;;
76113;SDS011;64845;53.086;5.834;2023-05-19T07:15:54;14.50;;;3.47;;
76113;SDS011;64845;53.086;5.834;2023-05-19T07:18:20;9.48;;;3.13;;
76113;SDS011;64845;53.086;5.834;2023-05-19T07:20:46;11.38;;;2.70;;
76113;SDS011;64845;53.086;5.834;2023-05-19T07:23:11;11.82;;;3.38;;
76113;SDS011;64845;53.086;5.834;2023-05-19T07:25:37;11.15;;;3.30;;
76113;SDS011;64845;53.086;5.834;2023-05-19T07:28:02;10.77;;;3.55;;
76113;SDS011;64845;53.086;5.834;2023-05-19T07:30:28;11.77;;;3.03;;
76113;SDS011;64845;53.086;5.834;2023-05-19T07:32:53;9.77;;;3.15;;
76113;SDS011;64845;53.086;5.834;2023-05-19T07:35:19;6.47;;;2.60;;
76113;SDS011;64845;53.086;5.834;2023-05-19T07:37:46;11.52;;;3.38;;
76113;SDS011;64845;53.086;5.834;2023-05-19T07:40:12;12.63;;;3.17;;
76113;SDS011;64845;53.086;5.834;2023-05-19T07:42:38;10.75;;;2.92;;
76113;SDS011;64845;53.086;5.834;2023-05-19T07:45:04;13.48;;;3.28;;
76113;SDS011;64845;53.086;5.834;2023-05-19T07:47:30;16.33;;;3.88;;
76113;SDS011;64845;53.086;5.834;2023-05-19T07:49:55;11.48;;;3.35;;
76113;SDS011;64845;53.086;5.834;2023-05-19T07:52:20;7.18;;;2.80;;
76113;SDS011;64845;53.086;5.834;2023-05-19T07:54:46;8.45;;;2.95;;
76113;SDS011;64845;53.086;5.834;2023-05-19T07:57:11;12.10;;;3.42;;
76113;SDS011;64845;53.086;5.834;2023-05-19T07:59:38;15.48;;;3.40;;
76113;SDS011;64845;53.086;5.834;2023-05-19T08:02:04;6.57;;;2.85;;
76113;SDS011;64845;53.086;5.834;2023-05-19T08:04:29;11.77;;;2.50;;
76113;SDS011;64845;53.086;5.834;2023-05-19T08:06:55;8.48;;;2.80;;
76113;SDS011;64845;53.086;5.834;2023-05-19T08:09:20;13.48;;;2.80;;
76113;SDS011;64845;53.086;5.834;2023-05-19T08:11:45;7.63;;;2.42;;
76113;SDS011;64845;53.086;5.834;2023-05-19T08:14:11;11.35;;;3.60;;
76113;SDS011;64845;53.086;5.834;2023-05-19T08:16:36;12.20;;;2.70;;
76113;SDS011;64845;53.086;5.834;2023-05-19T08:19:02;9.20;;;2.78;;
76113;SDS011;64845;53.086;5.834;2023-05-19T08:21:29;12.52;;;2.92;;
76113;SDS011;64845;53.086;5.834;2023-05-19T08:23:58;10.07;;;2.85;;
76113;SDS011;64845;53.086;5.834;2023-05-19T08:26:27;10.93;;;2.88;;
76113;SDS011;64845;53.086;5.834;2023-05-19T08:28:53;8.07;;;2.25;;
76113;SDS011;64845;53.086;5.834;2023-05-19T08:31:18;10.65;;;2.95;;
76113;SDS011;64845;53.086;5.834;2023-05-19T08:33:44;7.15;;;3.13;;
76113;SDS011;64845;53.086;5.834;2023-05-19T08:36:10;9.02;;;2.65;;
76113;SDS011;64845;53.086;5.834;2023-05-19T08:38:35;10.32;;;3.35;;
76113;SDS011;64845;53.086;5.834;2023-05-19T08:41:01;10.20;;;2.95;;
76113;SDS011;64845;53.086;5.834;2023-05-19T08:43:27;14.07;;;2.80;;
76113;SDS011;64845;53.086;5.834;2023-05-19T08:45:52;11.98;;;2.92;;
76113;SDS011;64845;53.086;5.834;2023-05-19T08:48:19;8.43;;;3.08;;
76113;SDS011;64845;53.086;5.834;2023-05-19T08:53:26;9.80;;;2.85;;
76113;SDS011;64845;53.086;5.834;2023-05-19T08:56:02;8.30;;;3.05;;
76113;SDS011;64845;53.086;5.834;2023-05-19T08:58:34;10.13;;;2.90;;
76113;SDS011;64845;53.086;5.834;2023-05-19T09:01:01;9.38;;;2.83;;
76113;SDS011;64845;53.086;5.834;2023-05-19T09:03:27;9.25;;;3.08;;
76113;SDS011;64845;53.086;5.834;2023-05-19T09:05:53;10.15;;;2.67;;
76113;SDS011;64845;53.086;5.834;2023-05-19T09:08:18;9.05;;;3.00;;
76113;SDS011;64845;53.086;5.834;2023-05-19T09:10:44;9.95;;;2.90;;
76113;SDS011;64845;53.086;5.834;2023-05-19T09:13:09;19.00;;;3.45;;
76113;SDS011;64845;53.086;5.834;2023-05-19T09:15:35;8.50;;;2.80;;
76113;SDS011;64845;53.086;5.834;2023-05-19T09:20:41;13.40;;;3.00;;
76113;SDS011;64845;53.086;5.834;2023-05-19T09:28:13;12.95;;;3.15;;
76113;SDS011;64845;53.086;5.834;2023-05-19T09:30:38;8.05;;;3.00;;
76113;SDS011;64845;53.086;5.834;2023-05-19T09:33:04;4.88;;;2.60;;
76113;SDS011;64845;53.086;5.834;2023-05-19T09:35:33;10.02;;;3.20;;
76113;SDS011;64845;53.086;5.834;2023-05-19T09:37:59;8.30;;;2.97;;
76113;SDS011;64845;53.086;5.834;2023-05-19T09:40:26;9.57;;;3.20;;
76113;SDS011;64845;53.086;5.834;2023-05-19T09:42:52;8.77;;;3.30;;
76113;SDS011;64845;53.086;5.834;2023-05-19T09:45:18;9.52;;;3.30;;
76113;SDS011;64845;53.086;5.834;2023-05-19T09:47:44;10.25;;;3.65;;
76113;SDS011;64845;53.086;5.834;2023-05-19T09:50:10;9.48;;;3.42;;
76113;SDS011;64845;53.086;5.834;2023-05-19T09:52:36;8.13;;;2.70;;
76113;SDS011;64845;53.086;5.834;2023-05-19T09:55:03;8.10;;;2.88;;
76113;SDS011;64845;53.086;5.834;2023-05-19T09:57:35;6.30;;;3.00;;
76113;SDS011;64845;53.086;5.834;2023-05-19T10:00:05;16.52;;;3.67;;
76113;SDS011;64845;53.086;5.834;2023-05-19T10:02:44;9.73;;;3.40;;
76113;SDS011;64845;53.086;5.834;2023-05-19T10:05:12;7.07;;;3.38;;
76113;SDS011;64845;53.086;5.834;2023-05-19T10:07:44;9.05;;;3.03;;
76113;SDS011;64845;53.086;5.834;2023-05-19T10:10:12;10.90;;;3.13;;
76113;SDS011;64845;53.086;5.834;2023-05-19T10:12:39;10.27;;;3.20;;
76113;SDS011;64845;53.086;5.834;2023-05-19T10:15:09;7.95;;;3.00;;
76113;SDS011;64845;53.086;5.834;2023-05-19T10:17:37;6.85;;;3.28;;
76113;SDS011;64845;53.086;5.834;2023-05-19T10:20:06;7.75;;;2.95;;
76113;SDS011;64845;53.086;5.834;2023-05-19T10:22:34;6.72;;;2.90;;
76113;SDS011;64845;53.086;5.834;2023-05-19T10:24:59;8.60;;;3.38;;
76113;SDS011;64845;53.086;5.834;2023-05-19T10:27:25;12.38;;;3.50;;
76113;SDS011;64845;53.086;5.834;2023-05-19T10:29:52;9.98;;;3.75;;
76113;SDS011;64845;53.086;5.834;2023-05-19T10:32:23;9.77;;;3.45;;
76113;SDS011;64845;53.086;5.834;2023-05-19T10:43:37;10.95;;;3.60;;
76113;SDS011;64845;53.086;5.834;2023-05-19T10:46:03;10.25;;;3.65;;
76113;SDS011;64845;53.086;5.834;2023-05-19T10:48:33;8.85;;;3.78;;
76113;SDS011;64845;53.086;5.834;2023-05-19T10:51:00;9.73;;;3.90;;
76113;SDS011;64845;53.086;5.834;2023-05-19T10:53:30;10.52;;;3.88;;
76113;SDS011;64845;53.086;5.834;2023-05-19T10:58:35;14.80;;;4.00;;
76113;SDS011;64845;53.086;5.834;2023-05-19T11:01:07;10.00;;;3.30;;
76113;SDS011;64845;53.086;5.834;2023-05-19T11:03:46;11.77;;;3.42;;
76113;SDS011;64845;53.086;5.834;2023-05-19T11:08:56;10.38;;;3.30;;
76113;SDS011;64845;53.086;5.834;2023-05-19T11:11:22;12.77;;;3.45;;
76113;SDS011;64845;53.086;5.834;2023-05-19T11:13:51;10.38;;;3.45;;
76113;SDS011;64845;53.086;5.834;2023-05-19T11:16:23;7.60;;;3.00;;
76113;SDS011;64845;53.086;5.834;2023-05-19T11:18:52;12.90;;;3.38;;
76113;SDS011;64845;53.086;5.834;2023-05-19T11:21:19;10.65;;;3.25;;
76113;SDS011;64845;53.086;5.834;2023-05-19T11:23:45;7.57;;;3.20;;
76113;SDS011;64845;53.086;5.834;2023-05-19T11:26:10;8.68;;;3.10;;
76113;SDS011;64845;53.086;5.834;2023-05-19T11:28:36;7.18;;;3.38;;
76113;SDS011;64845;53.086;5.834;2023-05-19T11:31:03;8.95;;;2.95;;
76113;SDS011;64845;53.086;5.834;2023-05-19T11:33:32;6.20;;;2.75;;
76113;SDS011;64845;53.086;5.834;2023-05-19T11:35:57;9.02;;;2.60;;
76113;SDS011;64845;53.086;5.834;2023-05-19T11:38:23;6.78;;;3.08;;
76113;SDS011;64845;53.086;5.834;2023-05-19T11:40:51;8.73;;;3.00;;
76113;SDS011;64845;53.086;5.834;2023-05-19T11:43:17;12.32;;;3.65;;
76113;SDS011;64845;53.086;5.834;2023-05-19T11:45:42;12.23;;;3.45;;
76113;SDS011;64845;53.086;5.834;2023-05-19T11:48:12;11.25;;;3.40;;
76113;SDS011;64845;53.086;5.834;2023-05-19T11:50:40;12.02;;;3.75;;
76113;SDS011;64845;53.086;5.834;2023-05-19T11:53:06;12.50;;;3.67;;
76113;SDS011;64845;53.086;5.834;2023-05-19T11:55:32;10.25;;;3.78;;
76113;SDS011;64845;53.086;5.834;2023-05-19T11:57:58;10.68;;;3.15;;
76113;SDS011;64845;53.086;5.834;2023-05-19T12:00:28;10.48;;;3.08;;
76113;SDS011;64845;53.086;5.834;2023-05-19T12:02:55;7.15;;;2.88;;
76113;SDS011;64845;53.086;5.834;2023-05-19T12:05:21;8.13;;;3.10;;
76113;SDS011;64845;53.086;5.834;2023-05-19T12:07:51;10.00;;;3.28;;
76113;SDS011;64845;53.086;5.834;2023-05-19T12:10:20;8.32;;;3.30;;
76113;SDS011;64845;53.086;5.834;2023-05-19T12:12:47;7.47;;;3.72;;
76113;SDS011;64845;53.086;5.834;2023-05-19T12:15:13;13.23;;;3.30;;
76113;SDS011;64845;53.086;5.834;2023-05-19T12:17:40;8.65;;;3.05;;
76113;SDS011;64845;53.086;5.834;2023-05-19T12:20:06;7.32;;;3.55;;
76113;SDS011;64845;53.086;5.834;2023-05-19T12:22:33;6.70;;;2.83;;
76113;SDS011;64845;53.086;5.834;2023-05-19T12:24:59;9.77;;;3.13;;
76113;SDS011;64845;53.086;5.834;2023-05-19T12:27:26;7.68;;;2.80;;
76113;SDS011;64845;53.086;5.834;2023-05-19T12:29:52;11.30;;;2.67;;
76113;SDS011;64845;53.086;5.834;2023-05-19T12:32:22;7.55;;;2.85;;
76113;SDS011;64845;53.086;5.834;2023-05-19T12:34:52;10.52;;;3.28;;
76113;SDS011;64845;53.086;5.834;2023-05-19T12:37:19;12.32;;;3.30;;
76113;SDS011;64845;53.086;5.834;2023-05-19T12:39:45;11.25;;;2.88;;
76113;SDS011;64845;53.086;5.834;2023-05-19T12:42:12;6.32;;;2.85;;
76113;SDS011;64845;53.086;5.834;2023-05-19T12:44:38;5.03;;;2.80;;
76113;SDS011;64845;53.086;5.834;2023-05-19T12:47:07;10.00;;;3.45;;
76113;SDS011;64845;53.086;5.834;2023-05-19T12:49:33;8.05;;;2.83;;
76113;SDS011;64845;53.086;5.834;2023-05-19T12:52:01;9.88;;;3.17;;
76113;SDS011;64845;53.086;5.834;2023-05-19T12:54:28;8.30;;;3.20;;
76113;SDS011;64845;53.086;5.834;2023-05-19T12:59:23;9.27;;;2.67;;
76113;SDS011;64845;53.086;5.834;2023-05-19T13:01:56;9.80;;;3.72;;
76113;SDS011;64845;53.086;5.834;2023-05-19T13:04:23;8.82;;;3.13;;
76113;SDS011;64845;53.086;5.834;2023-05-19T13:06:49;10.27;;;3.33;;
76113;SDS011;64845;53.086;5.834;2023-05-19T13:09:15;9.20;;;3.38;;
76113;SDS011;64845;53.086;5.834;2023-05-19T13:14:14;10.85;;;3.67;;
76113;SDS011;64845;53.086;5.834;2023-05-19T13:16:42;8.43;;;3.33;;
76113;SDS011;64845;53.086;5.834;2023-05-19T13:19:08;7.05;;;2.95;;
76113;SDS011;64845;53.086;5.834;2023-05-19T13:21:33;17.45;;;3.90;;
76113;SDS011;64845;53.086;5.834;2023-05-19T13:23:59;8.63;;;3.22;;
76113;SDS011;64845;53.086;5.834;2023-05-19T13:26:24;9.68;;;3.38;;
76113;SDS011;64845;53.086;5.834;2023-05-19T13:28:50;9.95;;;3.70;;
76113;SDS011;64845;53.086;5.834;2023-05-19T13:31:17;9.80;;;3.58;;
76113;SDS011;64845;53.086;5.834;2023-05-19T13:33:42;10.60;;;3.80;;
76113;SDS011;64845;53.086;5.834;2023-05-19T13:36:08;12.88;;;4.22;;
76113;SDS011;64845;53.086;5.834;2023-05-19T13:38:33;11.95;;;3.97;;
76113;SDS011;64845;53.086;5.834;2023-05-19T13:40:58;14.18;;;3.80;;
76113;SDS011;64845;53.086;5.834;2023-05-19T13:43:24;10.63;;;3.60;;
76113;SDS011;64845;53.086;5.834;2023-05-19T13:45:49;14.13;;;4.07;;
76113;SDS011;64845;53.086;5.834;2023-05-19T13:48:14;10.20;;;3.50;;
76113;SDS011;64845;53.086;5.834;2023-05-19T13:50:40;11.02;;;3.58;;
76113;SDS011;64845;53.086;5.834;2023-05-19T13:53:05;10.68;;;4.15;;
76113;SDS011;64845;53.086;5.834;2023-05-19T13:55:31;10.00;;;3.42;;
76113;SDS011;64845;53.086;5.834;2023-05-19T13:57:56;9.68;;;3.47;;
76113;SDS011;64845;53.086;5.834;2023-05-19T14:00:22;14.13;;;3.38;;
76113;SDS011;64845;53.086;5.834;2023-05-19T14:02:47;10.05;;;3.80;;
76113;SDS011;64845;53.086;5.834;2023-05-19T14:05:13;11.60;;;3.65;;
76113;SDS011;64845;53.086;5.834;2023-05-19T14:07:38;12.60;;;3.45;;
76113;SDS011;64845;53.086;5.834;2023-05-19T14:10:04;13.32;;;3.38;;
76113;SDS011;64845;53.086;5.834;2023-05-19T14:12:30;12.27;;;3.38;;
76113;SDS011;64845;53.086;5.834;2023-05-19T14:14:56;10.63;;;3.70;;
76113;SDS011;64845;53.086;5.834;2023-05-19T14:17:22;10.43;;;3.33;;
76113;SDS011;64845;53.086;5.834;2023-05-19T14:19:47;10.50;;;4.10;;
76113;SDS011;64845;53.086;5.834;2023-05-19T14:22:13;15.05;;;3.88;;
76113;SDS011;64845;53.086;5.834;2023-05-19T14:24:38;14.82;;;4.05;;
76113;SDS011;64845;53.086;5.834;2023-05-19T14:27:03;14.27;;;3.92;;
76113;SDS011;64845;53.086;5.834;2023-05-19T14:29:29;12.20;;;3.13;;
76113;SDS011;64845;53.086;5.834;2023-05-19T14:31:57;10.00;;;3.67;;
76113;SDS011;64845;53.086;5.834;2023-05-19T14:34:23;7.88;;;3.10;;
76113;SDS011;64845;53.086;5.834;2023-05-19T14:36:48;10.35;;;3.30;;
76113;SDS011;64845;53.086;5.834;2023-05-19T14:39:14;9.50;;;3.40;;
76113;SDS011;64845;53.086;5.834;2023-05-19T14:41:39;10.90;;;3.35;;
76113;SDS011;64845;53.086;5.834;2023-05-19T14:44:04;13.60;;;3.63;;
76113;SDS011;64845;53.086;5.834;2023-05-19T14:46:30;9.80;;;3.83;;
76113;SDS011;64845;53.086;5.834;2023-05-19T14:48:55;14.95;;;3.63;;
76113;SDS011;64845;53.086;5.834;2023-05-19T14:51:21;11.70;;;3.63;;
76113;SDS011;64845;53.086;5.834;2023-05-19T14:53:46;9.48;;;3.58;;
76113;SDS011;64845;53.086;5.834;2023-05-19T14:56:14;9.68;;;3.55;;
76113;SDS011;64845;53.086;5.834;2023-05-19T14:58:39;12.57;;;3.60;;
76113;SDS011;64845;53.086;5.834;2023-05-19T15:01:05;18.08;;;3.80;;
76113;SDS011;64845;53.086;5.834;2023-05-19T15:03:30;13.93;;;3.80;;
76113;SDS011;64845;53.086;5.834;2023-05-19T15:05:55;12.90;;;3.30;;
76113;SDS011;64845;53.086;5.834;2023-05-19T15:08:21;14.65;;;3.72;;
76113;SDS011;64845;53.086;5.834;2023-05-19T15:10:47;11.05;;;3.55;;
76113;SDS011;64845;53.086;5.834;2023-05-19T15:13:13;11.90;;;4.00;;
76113;SDS011;64845;53.086;5.834;2023-05-19T15:15:42;14.10;;;3.42;;
76113;SDS011;64845;53.086;5.834;2023-05-19T15:18:08;15.68;;;3.75;;